Mount Pleasant, Canada
Current Conditions -  °F | °C
As of 10:00 AM on Saturday 20 Dec 2014 (Local Time) from CYGK Reporting Station
Few Clouds Few Clouds  
Wind Chill: 11°   Ceiling: Unl
Heat Index: 19°   Visibility: 15mi
Dew Point: 12°   Wind: 6mph
Humidity: 74%   Direction: 30°NNE
Pressure: 30.33"   Gusts: NA
Location:  44.23°N, 77.03°W
Report Text: CYGK 201500Z 03005KT 15SM FEW015 FEW140 M07/M11 A3033 RMK CF1AC1 CF TR AC TR SLP276
Loading
Personal Weather Stations






























Interactive Weather Map New forecast layout! Learn more

10-Day Weather Forecast

Advertisements
Track Severe Weather on mobile